Time;durP1;ratioP1;P1;durP2;ratioP2;P2;SDS_P1;SDS_P2;PMS_P1;PMS_P2;Temp;Humidity;BMP_temperature;BMP_pressure;BME280_temperature;BME280_humidity;BME280_pressure;Samples;Min_cycle;Max_cycle;Signal;HPM_P1;HPM_P2
2023/09/25 00:01:48;;;;;;;;;3.67;3.67;;;;;16.59;57.21;101643.81;5057089;28;45353;-42
2023/09/25 00:04:13;;;;;;;;;3.33;3.33;;;;;16.57;56.90;101643.16;5057554;28;45422;-46
2023/09/25 00:06:38;;;;;;;;;3.67;3.67;;;;;16.59;57.02;101655.41;5057454;28;45343;-44
2023/09/25 00:09:05;;;;;;;;;4.00;2.00;;;;;16.59;57.42;101655.41;5056534;28;50369;-47
2023/09/25 00:11:31;;;;;;;;;9.00;4.00;;;;;16.59;57.16;101658.06;5056623;28;45666;-47
2023/09/25 00:13:56;;;;;;;;;5.00;4.33;;;;;16.62;57.29;101664.97;5056930;28;45302;-42
2023/09/25 00:16:22;;;;;;;;;4.67;2.67;;;;;16.59;56.98;101660.75;5056969;28;45427;-44
2023/09/25 00:18:47;;;;;;;;;7.00;3.33;;;;;16.54;56.94;101657.72;5056699;28;45308;-44
2023/09/25 00:21:13;;;;;;;;;10.00;4.00;;;;;16.58;57.41;101664.47;5038818;28;45466;-44
2023/09/25 00:23:39;;;;;;;;;4.33;4.33;;;;;16.57;57.30;101665.47;5056867;28;45423;-42
2023/09/25 00:26:08;;;;;;;;;4.00;3.33;;;;;16.55;57.32;101664.78;5056306;28;45497;-44
2023/09/25 00:28:35;;;;;;;;;5.33;5.00;;;;;16.50;57.43;101669.81;5056485;28;45355;-42
2023/09/25 00:31:00;;;;;;;;;6.00;2.00;;;;;16.46;57.26;101666.59;5056229;28;45311;-43
2023/09/25 00:33:26;;;;;;;;;2.00;2.00;;;;;16.43;57.40;101677.69;5056828;28;45340;-43
2023/09/25 00:35:53;;;;;;;;;3.00;3.00;;;;;16.43;57.39;101677.69;5063312;28;45522;-42
2023/09/25 00:38:21;;;;;;;;;4.00;4.00;;;;;16.41;57.23;101674.31;5076584;28;45224;-42
2023/09/25 00:40:48;;;;;;;;;3.33;3.33;;;;;16.40;57.79;101672.63;5076757;28;45351;-42
2023/09/25 00:43:13;;;;;;;;;7.00;4.00;;;;;16.35;57.62;101669.59;5077119;28;45357;-43
2023/09/25 00:45:41;;;;;;;;;4.00;3.00;;;;;16.35;57.68;101671.41;5076220;28;46005;-44
2023/09/25 00:48:12;;;;;;;;;5.67;4.00;;;;;16.32;57.48;101658.34;5076493;28;45339;-42
2023/09/25 00:50:38;;;;;;;;;4.67;4.00;;;;;16.26;57.87;101650.91;5076452;28;45757;-42
2023/09/25 00:53:09;;;;;;;;;3.33;2.67;;;;;16.23;57.95;101657.47;5076502;28;45380;-42
2023/09/25 00:55:35;;;;;;;;;6.00;4.00;;;;;16.11;58.20;101651.53;5076040;28;46273;-43
2023/09/25 00:58:01;;;;;;;;;3.00;3.00;;;;;16.13;58.19;101648.69;5076071;28;45307;-42
2023/09/25 01:00:27;;;;;;;;;2.00;2.00;;;;;16.09;58.46;101647.31;5076458;28;45671;-43
2023/09/25 01:02:52;;;;;;;;;4.33;3.33;;;;;16.07;58.58;101660.91;5075925;28;45545;-42
2023/09/25 01:05:18;;;;;;;;;3.00;3.00;;;;;16.06;58.78;101644.97;5076264;28;45350;-42
2023/09/25 01:07:43;;;;;;;;;7.00;5.00;;;;;15.98;58.92;101650.31;5076422;28;45846;-43
2023/09/25 01:10:16;;;;;;;;;6.00;4.00;;;;;15.99;58.83;101651.97;5058169;28;45730;-49
2023/09/25 01:12:45;;;;;;;;;3.00;2.67;;;;;15.90;59.08;101637.69;5076593;28;45477;-49
2023/09/25 01:15:12;;;;;;;;;6.67;4.33;;;;;15.97;59.51;101657.50;5076294;28;46212;-47
2023/09/25 01:17:38;;;;;;;;;4.33;2.00;;;;;15.88;59.30;101648.56;5075781;28;45405;-43
2023/09/25 01:20:12;;;;;;;;;5.00;3.00;;;;;15.91;59.82;101640.19;5076264;28;45375;-44
2023/09/25 01:22:42;;;;;;;;;6.00;4.00;;;;;15.83;59.70;101639.31;5075633;28;45398;-44
2023/09/25 01:25:10;;;;;;;;;7.67;4.00;;;;;15.89;59.80;101649.41;5075989;28;46184;-43
2023/09/25 01:27:37;;;;;;;;;4.33;3.33;;;;;15.72;59.70;101627.03;5075894;28;45317;-41
2023/09/25 01:30:03;;;;;;;;;4.00;4.00;;;;;15.84;60.02;101649.88;5057892;28;45436;-42
2023/09/25 01:32:28;;;;;;;;;5.00;4.67;;;;;15.79;60.09;101640.63;5076150;28;45708;-43
2023/09/25 01:34:53;;;;;;;;;4.67;4.33;;;;;15.72;60.12;101635.06;5074811;28;45442;-42
2023/09/25 01:37:19;;;;;;;;;4.00;4.00;;;;;15.77;60.10;101648.00;5075685;28;45362;-42
2023/09/25 01:39:44;;;;;;;;;5.00;4.00;;;;;15.78;60.21;101658.56;5075719;28;45420;-45
2023/09/25 01:42:09;;;;;;;;;1.33;1.33;;;;;15.72;60.02;101643.13;5076419;28;45502;-43
2023/09/25 01:44:35;;;;;;;;;3.33;3.00;;;;;15.72;60.26;101659.22;5075640;28;46535;-43
2023/09/25 01:47:00;;;;;;;;;3.33;3.00;;;;;15.71;60.48;101654.81;5075978;28;45460;-43
2023/09/25 01:49:27;;;;;;;;;6.33;5.33;;;;;15.64;60.76;101651.06;5075979;28;45383;-43
2023/09/25 01:51:52;;;;;;;;;3.67;3.67;;;;;15.69;60.51;101656.84;5057855;28;45481;-44
2023/09/25 01:54:18;;;;;;;;;3.00;3.00;;;;;15.61;60.20;101644.19;5075697;28;45457;-43
2023/09/25 01:56:45;;;;;;;;;4.33;2.00;;;;;15.50;60.70;101616.78;5075527;28;45445;-42
2023/09/25 01:59:10;;;;;;;;;8.67;6.00;;;;;15.64;60.43;101651.94;5076115;28;45662;-43
2023/09/25 02:01:36;;;;;;;;;3.00;3.00;;;;;15.53;60.86;101628.03;5075730;28;45433;-43
2023/09/25 02:04:01;;;;;;;;;3.00;3.00;;;;;15.58;61.05;101644.47;5075023;28;46179;-44
2023/09/25 02:06:27;;;;;;;;;3.00;3.00;;;;;15.55;61.19;101642.13;5075918;28;45394;-42
2023/09/25 02:08:52;;;;;;;;;4.00;3.00;;;;;15.53;61.03;101641.44;5075472;28;45509;-43
2023/09/25 02:11:18;;;;;;;;;4.00;2.00;;;;;15.51;61.41;101638.09;5076150;28;45558;-43
2023/09/25 02:13:43;;;;;;;;;5.00;3.00;;;;;15.45;60.96;101636.00;5075339;28;46229;-44
2023/09/25 02:16:09;;;;;;;;;5.33;4.33;;;;;15.47;61.38;101632.19;5075491;28;45406;-44
2023/09/25 02:18:35;;;;;;;;;5.33;4.00;;;;;15.38;61.38;101627.78;5075335;28;45383;-44
2023/09/25 02:21:00;;;;;;;;;2.00;2.00;;;;;15.42;61.75;101633.63;5075716;28;45329;-44
2023/09/25 02:23:25;;;;;;;;;3.33;3.33;;;;;15.40;61.47;101638.34;5075530;28;45332;-43
2023/09/25 02:25:51;;;;;;;;;5.00;3.00;;;;;15.35;61.96;101640.66;5075342;28;45358;-42
2023/09/25 02:28:16;;;;;;;;;6.67;3.33;;;;;15.32;62.17;101646.31;5075333;28;45317;-43
2023/09/25 02:30:41;;;;;;;;;4.00;3.33;;;;;15.25;62.16;101638.03;5075979;28;45366;-43
2023/09/25 02:33:07;;;;;;;;;5.00;3.67;;;;;15.29;62.11;101643.94;5075169;28;45211;-44
2023/09/25 02:35:32;;;;;;;;;5.33;4.00;;;;;15.29;62.22;101646.63;5077237;28;45435;-43
2023/09/25 02:37:58;;;;;;;;;5.33;3.00;;;;;15.28;61.80;101640.41;5078951;28;45367;-42
2023/09/25 02:40:24;;;;;;;;;4.00;3.33;;;;;15.23;61.96;101638.19;5079078;28;45343;-43
2023/09/25 02:42:50;;;;;;;;;3.33;3.33;;;;;15.13;62.28;101636.63;5079134;28;45501;-44
2023/09/25 02:45:16;;;;;;;;;5.67;3.00;;;;;15.11;62.69;101636.75;5078860;28;45317;-43
2023/09/25 02:47:41;;;;;;;;;6.00;3.00;;;;;15.12;62.64;101635.75;5079199;28;45425;-43
2023/09/25 02:50:07;;;;;;;;;3.00;3.00;;;;;15.15;62.53;101634.63;5079051;28;45315;-44
2023/09/25 02:52:33;;;;;;;;;2.67;2.67;;;;;15.12;62.66;101645.63;5078494;28;46115;-43
2023/09/25 02:54:58;;;;;;;;;3.33;3.33;;;;;15.04;62.91;101624.97;5078718;28;45299;-43
2023/09/25 02:57:23;;;;;;;;;5.00;3.67;;;;;15.06;62.62;101632.88;5078653;28;45322;-44
2023/09/25 02:59:49;;;;;;;;;4.33;2.00;;;;;15.00;62.78;101628.97;5079066;28;45299;-44
2023/09/25 03:02:15;;;;;;;;;3.33;2.00;;;;;15.01;62.57;101638.69;5060302;28;46256;-44
2023/09/25 03:04:40;;;;;;;;;5.00;2.33;;;;;14.97;63.07;101640.84;5078683;28;45225;-44
2023/09/25 03:07:05;;;;;;;;;2.00;2.00;;;;;14.96;63.03;101633.78;5078663;28;45457;-43
2023/09/25 03:09:31;;;;;;;;;5.33;5.33;;;;;14.98;63.24;101644.34;5078784;28;45505;-43
2023/09/25 03:11:56;;;;;;;;;7.00;3.00;;;;;14.98;63.17;101644.34;5078422;28;45679;-44
2023/09/25 03:14:22;;;;;;;;;3.67;2.00;;;;;14.97;63.32;101648.03;5078397;28;45387;-44
2023/09/25 03:16:47;;;;;;;;;4.33;3.00;;;;;14.98;63.39;101647.03;5077670;28;45592;-45
2023/09/25 03:19:13;;;;;;;;;4.67;4.67;;;;;15.02;62.86;101647.56;5079010;28;45344;-43
2023/09/25 03:21:41;;;;;;;;;7.00;4.00;;;;;14.98;63.06;101642.50;5078147;28;46850;-46
2023/09/25 03:24:07;;;;;;;;;2.67;2.67;;;;;14.93;63.25;101670.75;5078045;28;45259;-44
2023/09/25 03:26:32;;;;;;;;;7.00;4.00;;;;;14.92;63.67;101650.34;5078476;28;45331;-44
2023/09/25 03:28:57;;;;;;;;;6.00;4.00;;;;;14.90;63.54;101650.47;5078570;28;45426;-47
2023/09/25 03:31:22;;;;;;;;;4.67;4.00;;;;;14.89;63.64;101650.63;5078281;28;45687;-44
2023/09/25 03:33:48;;;;;;;;;4.00;3.67;;;;;14.87;63.87;101647.25;5059840;28;45414;-45
2023/09/25 03:36:13;;;;;;;;;3.67;3.00;;;;;14.87;63.89;101656.13;5078148;28;45177;-44
2023/09/25 03:38:39;;;;;;;;;4.00;4.00;;;;;14.85;63.75;101668.00;5079025;28;45382;-44
2023/09/25 03:41:04;;;;;;;;;4.00;4.00;;;;;14.85;64.05;101659.97;5078847;28;45399;-45
2023/09/25 03:43:29;;;;;;;;;4.00;4.00;;;;;14.83;63.81;101660.13;5078473;28;45322;-43
2023/09/25 03:45:55;;;;;;;;;3.33;2.33;;;;;14.83;63.74;101669.97;5077802;28;45282;-44
2023/09/25 03:48:20;;;;;;;;;3.00;3.00;;;;;14.80;63.91;101670.31;5078435;28;45407;-45
2023/09/25 03:50:46;;;;;;;;;5.00;3.00;;;;;14.75;64.16;101668.06;5078095;28;46209;-44
2023/09/25 03:53:11;;;;;;;;;4.67;3.67;;;;;14.72;64.09;101673.72;5078155;28;45269;-44
2023/09/25 03:55:38;;;;;;;;;8.00;5.00;;;;;14.69;64.21;101668.66;5077460;28;45655;-43
2023/09/25 03:58:03;;;;;;;;;5.33;4.00;;;;;14.64;64.22;101660.25;5077935;28;45452;-46
2023/09/25 04:00:29;;;;;;;;;8.00;4.00;;;;;14.67;64.25;101660.78;5077758;28;46040;-45
2023/09/25 04:02:54;;;;;;;;;5.67;5.67;;;;;14.65;64.29;101659.25;5077526;28;45459;-44
2023/09/25 04:05:20;;;;;;;;;8.33;4.00;;;;;14.47;64.33;101640.44;5077416;28;48695;-42
2023/09/25 04:07:45;;;;;;;;;5.00;3.00;;;;;14.62;64.50;101664.91;5077848;28;45560;-45
2023/09/25 04:10:11;;;;;;;;;6.00;4.00;;;;;14.62;64.65;101675.59;5077273;28;46403;-44
2023/09/25 04:12:37;;;;;;;;;10.00;4.00;;;;;14.62;64.75;101675.59;5077752;28;45391;-47
2023/09/25 04:15:22;;;;;;;;;3.00;3.00;;;;;14.60;64.64;101681.13;5077667;28;45721;-43
2023/09/25 04:17:50;;;;;;;;;5.00;4.00;;;;;14.59;64.77;101673.25;5076891;28;45539;-42
2023/09/25 04:20:17;;;;;;;;;6.33;3.00;;;;;14.54;64.95;101681.75;5077218;28;46167;-42
2023/09/25 04:22:43;;;;;;;;;7.33;4.00;;;;;14.55;64.92;101685.25;5077344;28;45477;-43
2023/09/25 04:25:18;;;;;;;;;3.33;3.33;;;;;14.53;64.88;101688.06;5077282;28;45422;-46
2023/09/25 04:27:44;;;;;;;;;4.33;4.33;;;;;14.51;64.86;101683.88;5077726;28;45457;-43
2023/09/25 04:30:14;;;;;;;;;2.00;2.00;;;;;14.51;64.98;101681.19;5076989;28;47201;-43
2023/09/25 04:32:40;;;;;;;;;4.67;3.00;;;;;14.52;65.21;101681.03;5077042;28;45270;-43
2023/09/25 04:35:07;;;;;;;;;5.67;4.00;;;;;14.50;65.01;101675.00;5077242;28;45375;-43
2023/09/25 04:37:33;;;;;;;;;6.33;5.00;;;;;14.46;65.33;101682.44;5077047;28;45421;-42
2023/09/25 04:39:58;;;;;;;;;4.33;4.33;;;;;14.46;65.27;101689.63;5076883;28;45433;-44
2023/09/25 04:42:24;;;;;;;;;3.67;2.67;;;;;14.43;65.08;101688.09;5076902;28;45410;-42
2023/09/25 04:44:49;;;;;;;;;6.67;4.67;;;;;14.38;64.66;101681.50;5076971;28;45377;-44
2023/09/25 04:47:14;;;;;;;;;10.00;4.33;;;;;14.41;65.29;101695.44;5077342;28;45230;-43
2023/09/25 04:49:40;;;;;;;;;6.00;4.33;;;;;14.42;65.39;101691.78;5077041;28;52900;-42
2023/09/25 04:52:05;;;;;;;;;7.33;5.00;;;;;14.40;65.36;101691.06;5076634;28;50610;-44
2023/09/25 04:54:31;;;;;;;;;3.67;3.33;;;;;14.40;65.20;101698.25;5077136;28;45360;-49
2023/09/25 04:56:56;;;;;;;;;5.00;5.00;;;;;14.38;65.44;101695.72;5076357;28;45423;-44
2023/09/25 04:59:22;;;;;;;;;5.33;4.67;;;;;14.37;65.43;101702.09;5076639;28;46102;-49
2023/09/25 05:01:47;;;;;;;;;4.00;4.00;;;;;14.36;65.32;101703.06;5076706;28;46568;-51
2023/09/25 05:04:12;;;;;;;;;8.67;8.67;;;;;14.34;65.43;101693.50;5076866;28;45266;-44
2023/09/25 05:06:38;;;;;;;;;10.00;4.00;;;;;14.32;65.46;101698.16;5076950;28;45346;-43
2023/09/25 05:09:03;;;;;;;;;7.00;4.33;;;;;14.33;64.97;101695.34;5076257;28;46211;-44
2023/09/25 05:11:29;;;;;;;;;5.67;4.00;;;;;14.27;65.28;101698.59;5075757;28;45263;-45
2023/09/25 05:13:54;;;;;;;;;5.00;4.33;;;;;14.27;65.65;101703.09;5076669;28;45292;-45
2023/09/25 05:16:20;;;;;;;;;7.00;4.00;;;;;14.16;65.74;101707.66;5076239;28;45430;-43
2023/09/25 05:18:45;;;;;;;;;6.33;5.00;;;;;14.20;65.79;101716.25;5076389;28;46286;-42
2023/09/25 05:21:10;;;;;;;;;5.00;5.00;;;;;14.23;65.95;101714.09;5076311;28;45390;-43
2023/09/25 05:23:36;;;;;;;;;6.00;4.67;;;;;14.23;65.74;101710.56;5076606;28;45375;-43
2023/09/25 05:26:01;;;;;;;;;8.67;5.33;;;;;14.25;65.78;101707.78;5076575;28;45272;-43
2023/09/25 05:28:26;;;;;;;;;4.33;4.33;;;;;14.19;65.73;101707.34;5076262;28;46014;-45
2023/09/25 05:30:56;;;;;;;;;9.33;5.67;;;;;14.17;65.73;101704.00;5075891;28;45265;-43
2023/09/25 05:33:22;;;;;;;;;8.00;7.00;;;;;14.23;65.51;101718.59;5076346;28;45408;-45
2023/09/25 05:35:47;;;;;;;;;10.67;7.00;;;;;14.18;65.53;101708.34;5076458;28;45293;-45
2023/09/25 05:38:13;;;;;;;;;5.33;4.00;;;;;14.03;65.38;101687.56;5076240;28;45999;-45
2023/09/25 05:40:38;;;;;;;;;7.67;4.67;;;;;14.15;65.30;101713.97;5076297;28;45715;-44
2023/09/25 05:43:04;;;;;;;;;7.00;5.00;;;;;14.14;65.79;101709.63;5058268;28;45315;-44
2023/09/25 05:45:29;;;;;;;;;4.00;4.00;;;;;14.11;65.76;101707.22;5076724;28;45315;-44
2023/09/25 05:47:54;;;;;;;;;4.00;4.00;;;;;14.06;65.99;101704.16;5076299;28;46097;-44
2023/09/25 05:50:20;;;;;;;;;8.00;5.67;;;;;14.11;65.68;101703.72;5076342;28;45421;-43
2023/09/25 05:52:46;;;;;;;;;1.67;1.67;;;;;14.03;65.90;101703.59;5076521;28;45384;-43
2023/09/25 05:55:11;;;;;;;;;5.00;4.00;;;;;14.05;65.95;101723.03;5076486;28;45364;-42
2023/09/25 05:57:37;;;;;;;;;4.67;4.67;;;;;14.03;65.74;101727.69;5076077;28;45914;-48
2023/09/25 06:00:11;;;;;;;;;6.67;4.67;;;;;14.04;65.68;101727.56;5076121;28;45268;-45
2023/09/25 06:02:36;;;;;;;;;5.67;3.67;;;;;14.02;65.79;101740.22;5076260;28;45411;-43
2023/09/25 06:05:02;;;;;;;;;5.33;4.00;;;;;14.04;65.68;101740.94;5076357;28;45441;-43
2023/09/25 06:07:27;;;;;;;;;7.00;4.00;;;;;14.02;65.67;101737.53;5076053;28;47087;-45
2023/09/25 06:09:52;;;;;;;;;4.00;4.00;;;;;14.06;65.77;101743.44;5078758;28;45314;-45
2023/09/25 06:12:18;;;;;;;;;4.00;4.00;;;;;14.08;65.97;101734.31;5079772;28;45552;-45
2023/09/25 06:14:45;;;;;;;;;4.00;4.00;;;;;14.09;66.03;101748.53;5080126;28;45362;-43
2023/09/25 06:17:10;;;;;;;;;5.33;5.33;;;;;14.09;65.94;101737.81;5079144;28;50560;-42
2023/09/25 06:19:36;;;;;;;;;11.33;7.00;;;;;14.15;65.93;101745.25;5079431;28;48309;-44
2023/09/25 06:22:02;;;;;;;;;6.33;6.33;;;;;14.16;66.10;101747.81;5079610;28;45354;-41
2023/09/25 06:24:27;;;;;;;;;3.00;3.00;;;;;14.18;65.82;101739.63;5079530;28;45389;-43
2023/09/25 06:26:53;;;;;;;;;6.00;5.00;;;;;14.19;66.00;101735.94;5079028;28;51425;-46
2023/09/25 06:29:21;;;;;;;;;9.33;6.33;;;;;14.17;65.76;101733.44;5079216;28;45402;-44
2023/09/25 06:31:47;;;;;;;;;4.33;4.33;;;;;14.22;65.59;101735.66;5079398;28;45394;-42
2023/09/25 06:34:13;;;;;;;;;4.33;4.33;;;;;14.25;65.54;101745.25;5079335;28;45327;-43
2023/09/25 06:36:38;;;;;;;;;5.33;4.33;;;;;14.30;65.35;101753.66;5078635;28;46088;-43
2023/09/25 06:39:09;;;;;;;;;4.00;3.67;;;;;14.26;64.83;101742.41;5078769;28;45318;-44
2023/09/25 06:41:39;;;;;;;;;4.00;4.00;;;;;14.29;64.92;101746.63;5079003;28;45437;-44
2023/09/25 06:44:05;;;;;;;;;4.00;4.00;;;;;14.29;64.88;101752.00;5066353;28;45488;-44
2023/09/25 06:46:32;;;;;;;;;5.00;5.00;;;;;14.30;65.02;101746.47;5058257;28;46400;-45
2023/09/25 06:48:57;;;;;;;;;4.33;3.67;;;;;14.35;65.05;101749.56;5057883;28;45300;-42
2023/09/25 06:51:23;;;;;;;;;4.00;4.00;;;;;14.41;64.64;101748.97;5057856;28;45463;-42
2023/09/25 06:53:48;;;;;;;;;3.00;3.00;;;;;14.46;64.50;101743.19;5058581;28;45289;-41
2023/09/25 06:56:14;;;;;;;;;5.67;4.00;;;;;14.45;64.66;101742.34;5069820;28;48935;-43
2023/09/25 06:58:39;;;;;;;;;7.00;5.67;;;;;14.46;64.45;101737.81;5078933;28;45356;-44
2023/09/25 07:01:05;;;;;;;;;4.00;4.00;;;;;14.52;64.50;101750.66;5078472;28;45643;-42
2023/09/25 07:03:31;;;;;;;;;8.67;4.00;;;;;14.50;64.20;101736.56;5078958;28;45275;-43
2023/09/25 07:05:56;;;;;;;;;3.00;3.00;;;;;14.53;64.13;101751.47;5078461;28;47041;-42
2023/09/25 07:08:22;;;;;;;;;3.67;3.00;;;;;14.49;64.16;101753.59;5074276;28;45335;-46
2023/09/25 07:10:49;;;;;;;;;9.67;5.00;;;;;14.54;64.22;101762.06;5069250;28;45383;-45
2023/09/25 07:13:15;;;;;;;;;8.00;5.00;;;;;14.54;63.75;101767.41;5071418;27;46758;-48
2023/09/25 07:15:40;;;;;;;;;6.33;4.33;;;;;14.65;63.80;101769.03;5068899;28;46188;-45
2023/09/25 07:18:06;;;;;;;;;4.33;4.00;;;;;14.77;63.21;101772.38;5074204;28;45490;-43
2023/09/25 07:20:31;;;;;;;;;6.33;3.67;;;;;14.77;62.78;101761.66;5073875;27;45555;-43
2023/09/25 07:22:57;;;;;;;;;8.00;4.00;;;;;14.85;62.67;101770.63;5043004;28;45869;-44
2023/09/25 07:25:22;;;;;;;;;5.00;5.00;;;;;14.90;63.20;101768.34;5070622;27;46069;-42
2023/09/25 07:27:48;;;;;;;;;6.00;4.33;;;;;15.00;62.76;101762.94;5055136;28;45494;-44
2023/09/25 07:30:14;;;;;;;;;6.67;4.00;;;;;15.12;62.42;101767.06;5070854;27;45493;-44
2023/09/25 07:32:42;;;;;;;;;6.00;3.00;;;;;15.24;61.98;101767.72;5074265;27;45440;-44
2023/09/25 07:35:09;;;;;;;;;6.00;5.00;;;;;15.44;61.67;101769.25;5056669;28;47169;-42
2023/09/25 07:37:36;;;;;;;;;5.00;3.33;;;;;15.58;60.80;101754.44;5037989;28;45510;-46
2023/09/25 07:40:07;;;;;;;;;4.00;4.00;;;;;15.71;60.85;101762.13;5043191;28;45431;-43
2023/09/25 07:42:33;;;;;;;;;5.00;3.67;;;;;15.99;60.00;101760.16;5043788;28;45423;-45
2023/09/25 07:44:58;;;;;;;;;7.00;5.33;;;;;16.26;59.59;101761.84;5045308;28;46532;-42
2023/09/25 07:47:29;;;;;;;;;7.00;5.00;;;;;16.53;58.95;101768.88;5044478;28;45923;-43
2023/09/25 07:49:54;;;;;;;;;6.67;6.00;;;;;16.75;58.78;101774.69;5048073;28;45942;-43
2023/09/25 07:52:20;;;;;;;;;10.33;7.67;;;;;16.86;58.18;101755.59;5049362;28;45366;-45
2023/09/25 07:54:51;;;;;;;;;10.33;6.00;;;;;17.13;57.48;101763.38;5054200;28;45400;-44
2023/09/25 07:57:21;;;;;;;;;12.67;9.33;;;;;17.29;57.59;101762.59;5048718;28;45506;-43
2023/09/25 07:59:47;;;;;;;;;5.33;5.00;;;;;17.46;56.94;101764.28;5034404;28;45569;-45
2023/09/25 08:02:18;;;;;;;;;9.67;8.00;;;;;17.64;56.81;101763.28;5026631;28;45452;-44
2023/09/25 08:04:44;;;;;;;;;8.33;8.33;;;;;17.73;56.38;101766.81;5053503;28;45785;-44
2023/09/25 08:07:10;;;;;;;;;7.00;7.00;;;;;17.90;55.86;101766.66;5053514;28;45443;-43
2023/09/25 08:09:36;;;;;;;;;8.00;6.33;;;;;18.09;55.82;101761.94;5045170;28;45443;-44
2023/09/25 08:12:01;;;;;;;;;9.67;7.00;;;;;18.27;55.00;101754.47;5036485;28;45481;-47
2023/09/25 08:14:27;;;;;;;;;9.67;5.00;;;;;18.39;54.50;101769.25;5039347;28;45393;-45
2023/09/25 08:16:52;;;;;;;;;7.00;6.33;;;;;18.41;54.41;101771.78;5029302;28;45913;-46
2023/09/25 08:19:18;;;;;;;;;8.33;5.33;;;;;18.35;54.17;101770.63;5040244;28;45363;-45
2023/09/25 08:21:44;;;;;;;;;10.00;6.00;;;;;18.44;54.40;101768.75;5043960;28;45912;-48
2023/09/25 08:24:10;;;;;;;;;9.00;5.00;;;;;18.55;54.04;101775.63;5053084;28;46295;-45
2023/09/25 08:26:36;;;;;;;;;5.00;5.00;;;;;18.86;53.54;101781.06;5037914;28;45479;-45
2023/09/25 08:29:05;;;;;;;;;5.00;5.00;;;;;19.24;52.88;101767.72;5046712;28;45520;-45
2023/09/25 08:31:31;;;;;;;;;6.67;5.67;;;;;19.56;51.71;101767.47;5053617;28;45552;-44
2023/09/25 08:33:57;;;;;;;;;7.33;7.33;;;;;20.00;51.17;101769.47;5044471;28;46929;-45
2023/09/25 08:36:22;;;;;;;;;6.00;4.25;;;;;20.38;50.38;101766.72;5039046;28;45549;-44
2023/09/25 08:38:47;;;;;;;;;7.50;6.00;;;;;20.71;49.43;101759.09;5033540;28;45417;-44
2023/09/25 08:41:14;;;;;;;;;7.75;4.25;;;;;20.73;49.40;101767.88;5033912;28;45372;-46
2023/09/25 08:43:43;;;;;;;;;4.75;4.25;;;;;20.71;48.47;101764.50;5043093;28;45823;-48
2023/09/25 08:46:10;;;;;;;;;6.00;6.00;;;;;20.67;49.26;101761.31;5033341;28;45396;-45
2023/09/25 08:48:35;;;;;;;;;7.00;5.25;;;;;20.81;49.23;101767.72;5053191;28;45264;-48
2023/09/25 08:51:01;;;;;;;;;10.25;4.75;;;;;21.02;48.88;101766.94;5053318;28;45356;-47
2023/09/25 08:53:29;;;;;;;;;7.50;6.00;;;;;21.14;48.78;101762.72;5052918;28;46376;-46
2023/09/25 08:55:55;;;;;;;;;6.50;4.25;;;;;21.30;48.00;101772.47;5052783;28;45443;-46
2023/09/25 08:58:22;;;;;;;;;6.50;5.25;;;;;21.24;47.83;101762.41;5043955;28;45479;-45
2023/09/25 09:00:47;;;;;;;;;6.00;6.00;;;;;21.12;48.49;101756.66;5053459;28;45449;-45
2023/09/25 09:03:13;;;;;;;;;9.50;7.25;;;;;21.12;48.59;101766.66;5032079;28;46699;-51
2023/09/25 09:05:38;;;;;;;;;7.00;6.00;;;;;21.13;48.63;101758.34;5052878;28;45466;-51
2023/09/25 09:08:05;;;;;;;;;9.00;6.00;;;;;21.71;48.12;101755.59;5035426;28;45502;-43
2023/09/25 09:10:32;;;;;;;;;6.50;5.00;;;;;22.31;46.04;101742.50;5044953;28;45521;-44
2023/09/25 09:12:58;;;;;;;;;7.75;6.50;;;;;22.86;46.09;101759.66;5032894;28;46171;-49
2023/09/25 09:15:26;;;;;;;;;2.00;1.40;;;;;23.38;44.87;101758.97;5049009;28;45458;-45
2023/09/25 09:17:53;;;;;;;;;7.60;5.60;;;;;23.71;43.52;101760.91;5033494;28;45437;-45
2023/09/25 09:20:21;;;;;;;;;7.00;7.00;;;;;23.87;43.38;101752.31;5033267;28;45403;-45
2023/09/25 09:22:51;;;;;;;;;9.00;6.60;;;;;23.92;42.99;101746.25;5033203;28;46967;-44
2023/09/25 09:25:17;;;;;;;;;7.60;5.80;;;;;23.94;42.67;101771.38;5032301;28;45431;-44
2023/09/25 09:27:46;;;;;;;;;8.25;8.00;;;;;23.72;43.58;101762.56;5033236;28;45444;-43
2023/09/25 09:30:22;;;;;;;;;9.20;7.80;;;;;23.58;43.67;101771.72;5050213;28;45465;-43
2023/09/25 09:32:50;;;;;;;;;9.60;8.00;;;;;23.77;43.31;101775.56;5052623;28;46088;-45
2023/09/25 09:35:19;;;;;;;;;9.00;7.80;;;;;24.18;42.94;101779.88;5054429;28;45442;-45
2023/09/25 09:37:45;;;;;;;;;9.80;8.80;;;;;24.52;42.26;101757.84;5072390;27;45460;-43
2023/09/25 09:40:13;;;;;;;;;7.00;5.80;;;;;25.07;42.28;101769.16;5065553;28;45552;-46
2023/09/25 09:42:40;;;;;;;;;8.40;8.40;;;;;25.61;41.14;101778.66;5064334;28;46409;-45
2023/09/25 09:45:08;;;;;;;;;8.60;8.60;;;;;25.99;40.26;101775.00;5061735;28;45395;-45
2023/09/25 09:47:41;;;;;;;;;7.80;7.00;;;;;26.56;39.58;101775.72;5079760;27;45502;-45
2023/09/25 09:50:09;;;;;;;;;10.20;9.00;;;;;27.06;38.77;101775.50;5076540;27;45400;-44
2023/09/25 09:52:36;;;;;;;;;10.00;8.00;;;;;27.58;37.30;101770.31;5078136;27;45650;-46
2023/09/25 09:55:04;;;;;;;;;10.00;7.60;;;;;28.01;36.82;101771.91;5079102;27;45413;-43
2023/09/25 09:57:30;;;;;;;;;6.00;6.00;;;;;28.55;36.17;101769.88;5078972;27;45336;-43
2023/09/25 09:59:56;;;;;;;;;11.20;9.00;;;;;29.08;35.65;101771.50;5079258;28;45331;-42
2023/09/25 10:02:21;;;;;;;;;9.75;7.00;;;;;29.65;34.82;101772.53;5078581;28;47031;-45
2023/09/25 10:04:48;;;;;;;;;7.25;7.25;;;;;30.13;33.39;101771.06;5078631;28;45529;-45
2023/09/25 10:07:13;;;;;;;;;7.20;6.80;;;;;30.61;32.21;101769.53;5079620;27;45592;-43
2023/09/25 10:09:58;;;;;;;;;7.25;7.25;;;;;31.08;33.17;101774.50;5077198;27;46241;-45
2023/09/25 10:12:40;;;;;;;;;6.40;6.40;;;;;31.54;32.64;101771.13;5078959;27;45546;-43
2023/09/25 10:15:08;;;;;;;;;10.20;8.00;;;;;32.09;31.17;101771.81;5078829;27;45477;-46
2023/09/25 10:17:41;;;;;;;;;10.00;9.80;;;;;32.55;29.71;101777.59;5078746;27;45883;-46
2023/09/25 10:20:30;;;;;;;;;9.40;8.20;;;;;32.89;30.01;101772.47;5073750;27;45565;-45
2023/09/25 10:23:10;;;;;;;;;8.00;7.80;;;;;33.40;29.47;101771.75;5058925;28;45441;-44
2023/09/25 10:25:55;;;;;;;;;7.60;7.60;;;;;33.77;30.91;101763.22;5065355;27;45516;-45
2023/09/25 10:28:28;;;;;;;;;8.80;8.60;;;;;34.07;28.30;101756.00;5069793;28;45441;-45
2023/09/25 10:30:58;;;;;;;;;8.40;6.80;;;;;34.39;27.65;101758.41;5059155;28;45594;-46
2023/09/25 10:33:28;;;;;;;;;8.60;8.00;;;;;34.68;27.43;101770.44;5067953;28;46197;-45
2023/09/25 10:35:59;;;;;;;;;7.80;7.80;;;;;35.00;27.25;101756.16;5058972;28;45458;-45
2023/09/25 10:38:28;;;;;;;;;10.20;8.40;;;;;35.29;27.19;101749.88;5058734;28;45641;-47
2023/09/25 10:40:55;;;;;;;;;8.00;8.00;;;;;35.53;25.76;101743.63;5059052;28;45522;-45
2023/09/25 10:43:22;;;;;;;;;6.60;6.60;;;;;35.89;25.90;101744.91;5055052;28;46149;-44
2023/09/25 10:45:49;;;;;;;;;9.00;7.20;;;;;36.34;25.25;101751.09;5058941;28;46370;-49
2023/09/25 10:48:15;;;;;;;;;8.20;7.60;;;;;37.04;24.70;101739.34;5057389;28;45507;-44
2023/09/25 10:50:43;;;;;;;;;8.00;7.60;;;;;37.52;23.81;101747.47;5058727;28;45350;-46
2023/09/25 10:53:10;;;;;;;;;8.40;6.80;;;;;38.46;23.10;101742.63;5058293;28;46987;-46
2023/09/25 10:55:35;;;;;;;;;8.80;8.60;;;;;39.84;20.96;101738.16;5055251;28;45478;-47
2023/09/25 10:58:06;;;;;;;;;6.00;5.75;;;;;40.92;21.10;101744.19;5055239;28;45541;-43
2023/09/25 11:00:32;;;;;;;;;4.80;4.80;;;;;41.68;19.83;101732.41;5055110;28;45412;-44
2023/09/25 11:02:58;;;;;;;;;8.80;6.60;;;;;39.77;20.69;101736.97;5055044;28;46179;-45
2023/09/25 11:05:24;;;;;;;;;10.40;8.20;;;;;37.98;22.15;101745.81;5054777;28;45311;-44
2023/09/25 11:07:50;;;;;;;;;7.25;7.25;;;;;36.53;23.63;101745.59;5055309;28;45509;-45
2023/09/25 11:10:15;;;;;;;;;9.00;7.25;;;;;35.56;25.04;101760.47;5054923;28;45677;-46
2023/09/25 11:12:41;;;;;;;;;6.75;6.75;;;;;34.77;25.57;101762.38;5054840;28;46254;-44
2023/09/25 11:15:11;;;;;;;;;8.50;6.00;;;;;33.87;26.79;101757.66;5054832;28;45580;-43
2023/09/25 11:17:40;;;;;;;;;5.80;5.00;;;;;33.24;27.10;101762.63;5053717;28;46414;-43
2023/09/25 11:20:11;;;;;;;;;7.00;6.80;;;;;32.72;27.89;101764.41;5054935;28;45426;-47
2023/09/25 11:22:41;;;;;;;;;7.80;4.80;;;;;32.11;28.56;101768.78;5036883;28;48396;-43